createdAt,value
2022-10-24T00:00:44.536Z,41.20
2022-10-24T00:03:13.291Z,41.23
2022-10-24T00:05:43.123Z,42.73
2022-10-24T00:08:13.288Z,36.00
2022-10-24T00:10:44.239Z,37.60
2022-10-24T00:13:13.194Z,41.43
2022-10-24T00:15:44.572Z,45.93
2022-10-24T00:18:12.564Z,38.37
2022-10-24T00:20:40.973Z,41.67
2022-10-24T00:23:09.757Z,35.37
2022-10-24T00:25:39.073Z,37.33
2022-10-24T00:28:07.078Z,40.73
2022-10-24T00:30:35.072Z,36.17
2022-10-24T00:33:03.007Z,35.20
2022-10-24T00:35:31.377Z,37.37
2022-10-24T00:37:59.377Z,37.57
2022-10-24T00:40:27.330Z,36.43
2022-10-24T00:42:56.595Z,37.93
2022-10-24T00:45:42.041Z,37.20
2022-10-24T00:48:17.312Z,36.73
2022-10-24T00:50:46.371Z,38.10
2022-10-24T00:53:15.693Z,36.13
2022-10-24T00:55:44.786Z,36.47
2022-10-24T00:58:15.440Z,38.77
2022-10-24T01:00:43.686Z,42.43
2022-10-24T01:03:12.452Z,40.97
2022-10-24T01:05:50.911Z,43.13
2022-10-24T01:08:25.983Z,47.10
2022-10-24T01:11:00.838Z,40.70
2022-10-24T01:13:39.214Z,42.50
2022-10-24T01:16:13.343Z,38.47
2022-10-24T01:18:47.563Z,33.97
2022-10-24T01:21:25.690Z,34.60
2022-10-24T01:24:12.811Z,30.00
2022-10-24T01:27:24.800Z,31.93
2022-10-24T01:30:02.872Z,33.57
2022-10-24T01:32:42.860Z,31.67
2022-10-24T01:35:36.398Z,32.40
2022-10-24T01:38:12.290Z,31.40
2022-10-24T01:40:48.678Z,31.40
2022-10-24T01:43:18.860Z,32.70
2022-10-24T01:45:53.531Z,33.67
2022-10-24T01:48:23.967Z,31.37
2022-10-24T01:50:54.943Z,30.10
2022-10-24T01:53:25.165Z,37.67
2022-10-24T01:55:54.791Z,35.97
2022-10-24T01:58:23.006Z,30.87
2022-10-24T02:00:56.124Z,31.73
2022-10-24T02:03:28.520Z,31.73
2022-10-24T02:06:00.403Z,31.30
2022-10-24T02:08:33.602Z,36.60
2022-10-24T02:11:05.408Z,32.07
2022-10-24T02:13:37.748Z,34.50
2022-10-24T02:16:08.007Z,33.87
2022-10-24T02:18:36.444Z,33.20
2022-10-24T02:21:11.796Z,31.77
2022-10-24T02:23:45.826Z,35.17
2022-10-24T02:26:21.177Z,31.70
2022-10-24T02:28:53.388Z,31.17
2022-10-24T02:31:25.979Z,32.10
2022-10-24T02:33:56.160Z,32.73
2022-10-24T02:36:28.530Z,33.20
2022-10-24T02:38:57.913Z,31.37
2022-10-24T02:41:31.120Z,30.43
2022-10-24T02:43:59.459Z,35.00
2022-10-24T02:46:29.455Z,32.80
2022-10-24T02:49:00.176Z,31.97
2022-10-24T02:51:31.866Z,32.13
2022-10-24T02:54:03.742Z,36.90
2022-10-24T02:56:32.269Z,40.40
2022-10-24T02:59:00.291Z,35.50
2022-10-24T03:01:29.751Z,32.40
2022-10-24T03:03:57.823Z,36.87
2022-10-24T03:06:25.931Z,34.80
2022-10-24T03:08:53.869Z,33.23
2022-10-24T03:11:21.882Z,35.70
2022-10-24T03:13:49.782Z,36.40
2022-10-24T03:16:17.778Z,35.13
2022-10-24T03:18:47.074Z,32.40
2022-10-24T03:21:15.020Z,35.70
2022-10-24T03:23:43.011Z,32.77
2022-10-24T03:26:11.063Z,33.73
2022-10-24T03:28:39.144Z,35.17
2022-10-24T03:31:07.736Z,32.37
2022-10-24T03:33:35.712Z,35.03
2022-10-24T03:36:06.534Z,33.03
2022-10-24T03:38:34.492Z,33.93
2022-10-24T03:41:02.558Z,34.00
2022-10-24T03:43:30.494Z,33.17
2022-10-24T03:45:59.589Z,34.43
2022-10-24T03:48:27.581Z,31.80
2022-10-24T03:50:55.731Z,34.37
2022-10-24T03:53:25.230Z,30.93
2022-10-24T03:55:53.189Z,31.30
2022-10-24T03:58:21.087Z,35.70
2022-10-24T04:00:49.094Z,30.37
2022-10-24T04:03:17.063Z,32.30
2022-10-24T04:05:45.043Z,33.47
2022-10-24T04:08:13.016Z,32.90
2022-10-24T04:10:42.321Z,32.50
2022-10-24T04:13:10.266Z,33.33
2022-10-24T04:15:38.363Z,35.10
2022-10-24T04:18:08.253Z,36.53
2022-10-24T04:20:36.910Z,34.58
2022-10-24T04:23:05.128Z,35.17
2022-10-24T04:25:33.163Z,37.43
2022-10-24T04:28:02.472Z,35.20
2022-10-24T04:30:30.516Z,37.63
2022-10-24T04:32:58.865Z,34.17
2022-10-24T04:35:27.193Z,37.60
2022-10-24T04:37:55.179Z,35.20
2022-10-24T04:40:23.373Z,37.70
2022-10-24T04:42:51.329Z,32.83
2022-10-24T04:45:20.667Z,29.95
2022-10-24T04:47:48.595Z,29.95
2022-10-24T04:50:16.547Z,30.43
2022-10-24T04:52:44.485Z,29.47
2022-10-24T04:55:12.536Z,27.43
2022-10-24T04:57:40.602Z,25.93
2022-10-24T05:00:09.732Z,23.27
2022-10-24T05:02:39.085Z,26.77
2022-10-24T05:05:07.505Z,23.70
2022-10-24T05:07:35.459Z,23.90
2022-10-24T05:10:03.711Z,23.77
2022-10-24T05:12:31.698Z,25.43
2022-10-24T05:14:59.654Z,25.73
2022-10-24T05:17:27.744Z,24.37
2022-10-24T05:19:57.051Z,24.07
2022-10-24T05:22:25.038Z,24.60
2022-10-24T05:24:53.218Z,27.03
2022-10-24T05:27:24.642Z,25.67
2022-10-24T05:29:52.712Z,27.40
2022-10-24T05:32:21.517Z,22.55
2022-10-24T05:34:49.506Z,23.73
2022-10-24T05:37:19.317Z,25.15
2022-10-24T05:39:47.310Z,22.90
2022-10-24T05:42:15.505Z,20.90
2022-10-24T05:44:43.478Z,18.25
2022-10-24T05:47:11.575Z,19.08
2022-10-24T05:49:39.527Z,24.98
2022-10-24T05:52:07.534Z,23.10
2022-10-24T05:54:48.557Z,21.52
2022-10-24T05:57:23.583Z,18.47
2022-10-24T05:59:51.521Z,17.33
2022-10-24T06:02:21.503Z,17.55
2022-10-24T06:04:50.721Z,15.13
2022-10-24T06:07:19.304Z,13.93
2022-10-24T06:09:48.659Z,12.30
2022-10-24T06:12:16.690Z,12.55
2022-10-24T06:14:44.851Z,15.10
2022-10-24T06:17:13.455Z,14.05
2022-10-24T06:19:41.771Z,13.88
2022-10-24T06:22:10.341Z,13.43
2022-10-24T06:24:39.482Z,16.42
2022-10-24T06:27:08.782Z,10.38
2022-10-24T06:29:37.223Z,13.13
2022-10-24T06:32:05.339Z,15.13
2022-10-24T06:34:33.282Z,11.50
2022-10-24T06:37:01.240Z,14.30
2022-10-24T06:39:29.536Z,13.35
2022-10-24T06:41:57.538Z,15.63
2022-10-24T06:44:27.175Z,13.37
2022-10-24T06:46:55.125Z,11.48
2022-10-24T06:49:23.078Z,12.30
2022-10-24T06:51:51.067Z,15.30
2022-10-24T06:54:19.031Z,18.60
2022-10-24T06:56:47.008Z,17.17
2022-10-24T06:59:17.047Z,16.33
2022-10-24T07:01:46.573Z,14.82
2022-10-24T07:04:14.600Z,18.53
2022-10-24T07:06:42.692Z,19.17
2022-10-24T07:09:15.245Z,19.27
2022-10-24T07:11:44.016Z,14.93
2022-10-24T07:14:12.444Z,15.55
2022-10-24T07:16:41.104Z,15.50
2022-10-24T07:19:11.584Z,18.45
2022-10-24T07:21:39.555Z,14.43
2022-10-24T07:24:08.790Z,15.57
2022-10-24T07:26:36.771Z,13.00
2022-10-24T07:29:05.974Z,18.65
2022-10-24T07:31:36.507Z,13.90
2022-10-24T07:34:06.815Z,14.80
2022-10-24T07:36:40.066Z,21.23
2022-10-24T07:39:11.933Z,16.40
2022-10-24T07:41:41.807Z,14.88
2022-10-24T07:44:10.362Z,14.82
2022-10-24T07:46:38.977Z,17.05
2022-10-24T07:49:06.932Z,16.15
2022-10-24T07:51:36.284Z,19.90
2022-10-24T07:54:04.435Z,19.48
2022-10-24T07:56:32.420Z,19.23
2022-10-24T07:59:05.891Z,16.83
2022-10-24T08:01:37.815Z,15.73
2022-10-24T08:04:06.014Z,16.90
2022-10-24T08:06:34.604Z,18.25
2022-10-24T08:09:04.767Z,16.15
2022-10-24T08:11:33.124Z,19.70
2022-10-24T08:14:02.393Z,18.15
2022-10-24T08:16:30.377Z,16.02
2022-10-24T08:18:59.362Z,19.65
2022-10-24T08:21:27.544Z,19.60
2022-10-24T08:23:57.055Z,16.85
2022-10-24T08:26:27.911Z,19.95
2022-10-24T08:28:58.245Z,18.60
2022-10-24T08:31:28.177Z,21.08
2022-10-24T08:33:56.872Z,14.60
2022-10-24T08:36:37.895Z,15.57
2022-10-24T08:39:05.861Z,18.95
2022-10-24T08:41:59.433Z,17.80
2022-10-24T08:44:30.364Z,14.70
2022-10-24T08:47:09.387Z,14.85
2022-10-24T08:49:46.477Z,15.95
2022-10-24T08:52:35.268Z,15.45
2022-10-24T08:58:55.786Z,14.25
2022-10-24T09:01:37.589Z,15.40
2022-10-24T09:04:18.488Z,10.32
2022-10-24T09:06:48.073Z,12.10
2022-10-24T09:09:25.181Z,13.55
2022-10-24T09:12:04.256Z,12.45
2022-10-24T09:15:34.530Z,12.75
2022-10-24T09:20:51.177Z,13.25
2022-10-24T09:23:34.177Z,11.65
2022-10-24T09:28:57.204Z,12.82
2022-10-24T09:31:32.976Z,15.68
2022-10-24T09:34:04.155Z,12.52
2022-10-24T09:36:32.416Z,13.75
2022-10-24T09:39:29.421Z,13.45
2022-10-24T09:41:58.663Z,16.65
2022-10-24T09:44:38.594Z,14.43
2022-10-24T09:47:10.150Z,12.02
2022-10-24T09:49:41.255Z,11.40
2022-10-24T09:52:19.883Z,12.60
2022-10-24T09:54:48.349Z,14.98
2022-10-24T09:57:18.190Z,11.80
2022-10-24T09:59:48.018Z,13.02
2022-10-24T10:02:20.653Z,11.40
2022-10-24T10:05:10.664Z,12.00
2022-10-24T10:07:41.024Z,15.98
2022-10-24T10:10:35.773Z,13.18
2022-10-24T10:13:07.312Z,13.30
2022-10-24T10:15:38.175Z,21.65
2022-10-24T10:18:22.622Z,13.35
2022-10-24T10:21:02.997Z,14.90
2022-10-24T10:23:32.757Z,14.70
2022-10-24T10:26:14.630Z,12.50
2022-10-24T10:28:59.252Z,15.02
2022-10-24T10:31:34.713Z,13.57
2022-10-24T10:34:23.026Z,12.40
2022-10-24T10:37:26.818Z,13.68
2022-10-24T10:40:21.378Z,13.82
2022-10-24T10:43:02.383Z,13.63
2022-10-24T10:45:41.917Z,14.48
2022-10-24T10:48:30.173Z,15.07
2022-10-24T10:51:08.107Z,13.35
2022-10-24T10:53:42.561Z,11.50
2022-10-24T10:56:23.266Z,12.40
2022-10-24T10:59:04.514Z,13.38
2022-10-24T11:01:45.149Z,11.27
2022-10-24T11:04:24.145Z,10.38
2022-10-24T11:09:40.656Z,10.18
2022-10-24T11:12:16.108Z,10.88
2022-10-24T11:14:48.059Z,12.45
2022-10-24T11:17:19.147Z,10.73
2022-10-24T11:20:00.828Z,9.93
2022-10-24T11:22:33.452Z,12.18
2022-10-24T11:25:08.756Z,12.77
2022-10-24T11:27:43.216Z,11.57
2022-10-24T11:30:16.725Z,11.07
2022-10-24T11:32:51.119Z,10.82
2022-10-24T11:35:26.770Z,14.73
2022-10-24T11:37:59.496Z,12.88
2022-10-24T11:40:31.233Z,8.93
2022-10-24T11:43:10.706Z,13.52
2022-10-24T11:45:46.838Z,9.95
2022-10-24T11:48:20.417Z,7.95
2022-10-24T11:50:54.041Z,9.38
2022-10-24T11:53:50.537Z,12.63
2022-10-24T11:56:27.245Z,7.55
2022-10-24T11:58:59.939Z,9.90
2022-10-24T12:01:48.565Z,11.38
2022-10-24T12:04:35.455Z,9.15
2022-10-24T12:07:46.431Z,10.23
2022-10-24T12:10:28.695Z,9.70
2022-10-24T12:13:12.071Z,9.68
2022-10-24T12:15:52.151Z,14.45
2022-10-24T12:18:31.103Z,12.68
2022-10-24T12:21:04.252Z,13.30
2022-10-24T12:23:32.956Z,9.93
2022-10-24T12:26:06.494Z,9.00
2022-10-24T12:28:36.805Z,11.23
2022-10-24T12:31:25.377Z,9.23
2022-10-24T12:34:37.287Z,13.38
2022-10-24T12:37:11.972Z,14.88
2022-10-24T12:39:44.395Z,11.07
2022-10-24T12:42:17.865Z,11.30
2022-10-24T12:44:50.477Z,9.15
2022-10-24T12:47:40.008Z,13.70
2022-10-24T12:50:45.359Z,12.38
2022-10-24T12:53:32.508Z,16.10
2022-10-24T12:56:16.181Z,11.68
2022-10-24T12:58:47.083Z,12.27
2022-10-24T13:01:29.778Z,16.38
2022-10-24T13:04:39.935Z,12.38
2022-10-24T13:07:41.236Z,11.57
2022-10-24T13:10:21.243Z,13.32
2022-10-24T13:13:13.440Z,13.25
2022-10-24T13:15:47.933Z,11.35
2022-10-24T13:18:38.476Z,13.32
2022-10-24T13:21:17.332Z,14.00
2022-10-24T13:23:49.820Z,13.50
2022-10-24T13:26:39.485Z,9.65
2022-10-24T13:29:13.077Z,10.05
2022-10-24T13:31:47.471Z,12.52
2022-10-24T13:34:20.445Z,9.77
2022-10-24T13:36:51.605Z,11.20
2022-10-24T13:39:24.658Z,13.05
2022-10-24T13:41:59.376Z,8.25
2022-10-24T13:44:32.791Z,9.40
2022-10-24T13:47:08.632Z,10.63
2022-10-24T13:49:46.009Z,8.52
2022-10-24T13:52:21.116Z,13.07
2022-10-24T13:54:56.563Z,11.05
2022-10-24T13:57:30.774Z,14.25
2022-10-24T14:00:00.507Z,18.55
2022-10-24T14:02:32.493Z,13.30
2022-10-24T14:05:03.739Z,10.90
2022-10-24T14:07:49.195Z,16.50
2022-10-24T14:10:20.094Z,11.48
2022-10-24T14:12:51.886Z,15.18
2022-10-24T14:15:22.323Z,10.27
2022-10-24T14:17:59.146Z,12.05
2022-10-24T14:20:31.438Z,18.95
2022-10-24T14:22:59.457Z,12.25
2022-10-24T14:25:33.122Z,13.10
2022-10-24T14:28:03.437Z,11.65
2022-10-24T14:30:34.978Z,11.50
2022-10-24T14:33:25.310Z,13.73
2022-10-24T14:35:57.932Z,12.10
2022-10-24T14:38:28.590Z,15.82
2022-10-24T14:41:08.466Z,12.52
2022-10-24T14:43:41.887Z,12.85
2022-10-24T14:46:28.020Z,13.05
2022-10-24T14:48:56.288Z,13.32
2022-10-24T14:51:36.320Z,16.88
2022-10-24T14:54:18.545Z,17.02
2022-10-24T14:56:47.484Z,13.65
2022-10-24T14:59:24.632Z,14.68
2022-10-24T15:01:57.808Z,10.23
2022-10-24T15:04:37.302Z,10.73
2022-10-24T15:07:20.968Z,12.07
2022-10-24T15:09:53.947Z,14.65
2022-10-24T15:12:28.622Z,11.93
2022-10-24T15:14:59.963Z,16.38
2022-10-24T15:17:32.734Z,14.40
2022-10-24T15:20:03.437Z,13.93
2022-10-24T15:22:35.560Z,14.00
2022-10-24T15:25:07.930Z,12.18
2022-10-24T15:27:41.068Z,14.05
2022-10-24T15:30:15.852Z,13.30
2022-10-24T15:32:44.280Z,17.15
2022-10-24T15:35:13.299Z,11.75
2022-10-24T15:37:54.230Z,13.88
2022-10-24T15:40:25.200Z,15.85
2022-10-24T15:42:53.424Z,14.52
2022-10-24T15:45:21.820Z,14.90
2022-10-24T15:47:51.204Z,16.15
2022-10-24T15:52:53.751Z,13.60
2022-10-24T15:55:24.009Z,15.15
2022-10-24T15:57:52.744Z,16.08
2022-10-24T16:00:22.638Z,14.25
2022-10-24T16:02:52.456Z,17.65
2022-10-24T16:05:22.845Z,16.15
2022-10-24T16:07:52.583Z,14.95
2022-10-24T16:10:22.162Z,14.10
2022-10-24T16:12:50.822Z,16.60
2022-10-24T16:15:22.416Z,14.95
2022-10-24T16:17:50.714Z,18.95
2022-10-24T16:20:19.012Z,18.73
2022-10-24T16:22:47.587Z,19.55
2022-10-24T16:25:20.762Z,14.13
2022-10-24T16:27:49.337Z,15.15
2022-10-24T16:30:19.244Z,20.10
2022-10-24T16:32:48.100Z,14.40
2022-10-24T16:35:19.183Z,17.52
2022-10-24T16:37:47.518Z,15.75
2022-10-24T16:40:16.984Z,17.98
2022-10-24T16:42:45.394Z,16.80
2022-10-24T16:45:13.554Z,16.52
2022-10-24T16:47:41.494Z,20.60
2022-10-24T16:50:14.187Z,18.08
2022-10-24T16:52:42.215Z,21.17
2022-10-24T16:55:12.866Z,20.85
2022-10-24T16:57:42.167Z,22.10
2022-10-24T17:00:14.324Z,25.92
2022-10-24T17:02:43.218Z,23.67
2022-10-24T17:05:11.241Z,22.63
2022-10-24T17:07:39.276Z,21.73
2022-10-24T17:10:07.954Z,23.70
2022-10-24T17:12:36.595Z,20.00
2022-10-24T17:15:06.931Z,22.80
2022-10-24T17:17:35.017Z,22.63
2022-10-24T17:20:03.437Z,23.17
2022-10-24T17:25:05.188Z,20.40
2022-10-24T17:27:33.387Z,25.50
2022-10-24T17:30:01.586Z,21.98
2022-10-24T17:32:32.889Z,22.85
2022-10-24T17:35:01.531Z,21.40
2022-10-24T17:37:48.236Z,20.95
2022-10-24T17:40:18.936Z,21.73
2022-10-24T17:42:48.629Z,21.35
2022-10-24T17:45:18.962Z,18.27
2022-10-24T17:47:48.809Z,26.08
2022-10-24T17:50:18.140Z,23.05
2022-10-24T17:52:50.948Z,23.85
2022-10-24T17:55:44.599Z,21.42
2022-10-24T17:58:10.251Z,22.45
2022-10-24T18:00:38.870Z,19.95
2022-10-24T18:03:08.809Z,20.55
2022-10-24T18:05:38.442Z,23.33
2022-10-24T18:08:07.706Z,22.88
2022-10-24T18:10:37.131Z,23.35
2022-10-24T18:13:05.257Z,19.10
2022-10-24T18:15:33.570Z,22.55
2022-10-24T18:18:01.569Z,22.87
2022-10-24T18:20:32.136Z,23.10
2022-10-24T18:23:00.153Z,22.63
2022-10-24T18:25:28.504Z,21.90
2022-10-24T18:27:56.980Z,26.52
2022-10-24T18:30:24.989Z,26.90
2022-10-24T18:32:52.940Z,27.63
2022-10-24T18:35:22.361Z,25.15
2022-10-24T18:40:21.556Z,24.00
2022-10-24T18:42:53.283Z,22.27
2022-10-24T18:45:23.675Z,20.40
2022-10-24T18:47:53.549Z,23.75
2022-10-24T18:50:24.491Z,22.67
2022-10-24T18:52:59.714Z,23.33
2022-10-24T18:55:30.006Z,18.73
2022-10-24T18:57:58.773Z,21.33
2022-10-24T19:00:29.365Z,18.30
2022-10-24T19:03:06.790Z,21.03
2022-10-24T19:05:43.750Z,18.48
2022-10-24T19:08:15.937Z,19.85
2022-10-24T19:10:45.708Z,19.92
2022-10-24T19:13:14.070Z,19.67
2022-10-24T19:15:46.317Z,22.50
2022-10-24T19:18:17.831Z,20.85
2022-10-24T19:20:45.922Z,23.15
2022-10-24T19:23:17.265Z,19.65
2022-10-24T19:25:45.554Z,23.40
2022-10-24T19:28:17.602Z,18.67
2022-10-24T19:30:46.039Z,17.70
2022-10-24T19:33:15.328Z,21.13
2022-10-24T19:35:47.159Z,19.00
2022-10-24T19:38:17.020Z,20.73
2022-10-24T19:40:49.626Z,22.45
2022-10-24T19:43:17.595Z,25.25
2022-10-24T19:45:50.111Z,24.08
2022-10-24T19:48:23.332Z,25.30
2022-10-24T19:50:52.235Z,25.13
2022-10-24T19:53:21.502Z,26.33
2022-10-24T19:55:49.500Z,28.95
2022-10-24T19:58:20.075Z,24.40
2022-10-24T20:00:48.544Z,24.38
2022-10-24T20:03:17.019Z,29.67
2022-10-24T20:05:46.750Z,26.63
2022-10-24T20:08:14.698Z,35.85
2022-10-24T20:10:51.796Z,41.05
2022-10-24T20:13:19.851Z,34.55
2022-10-24T20:15:54.013Z,34.15
2022-10-24T20:18:22.250Z,34.60
2022-10-24T20:20:50.463Z,26.02
2022-10-24T20:23:19.558Z,22.70
2022-10-24T20:25:50.330Z,27.83
2022-10-24T20:28:18.318Z,22.58
2022-10-24T20:30:48.116Z,28.33
2022-10-24T20:33:16.418Z,27.25
2022-10-24T20:35:45.373Z,31.48
2022-10-24T20:38:13.387Z,26.10
2022-10-24T20:40:41.321Z,30.67
2022-10-24T20:43:10.658Z,38.53
2022-10-24T20:45:40.897Z,34.67
2022-10-24T20:48:08.903Z,36.67
2022-10-24T20:50:37.303Z,40.40
2022-10-24T20:53:05.254Z,39.23
2022-10-24T20:55:43.904Z,38.08
2022-10-24T20:58:14.389Z,32.15
2022-10-24T21:00:42.397Z,34.67
2022-10-24T21:03:12.243Z,35.85
2022-10-24T21:05:40.474Z,41.27
2022-10-24T21:08:08.410Z,40.00
2022-10-24T21:10:36.392Z,42.80
2022-10-24T21:13:04.343Z,41.55
2022-10-24T21:15:33.649Z,37.88
2022-10-24T21:18:01.608Z,38.53
2022-10-24T21:20:29.589Z,39.83
2022-10-24T21:22:57.508Z,33.17
2022-10-24T21:25:25.507Z,33.03
2022-10-24T21:27:53.459Z,32.25
2022-10-24T21:30:21.499Z,29.05
2022-10-24T21:32:50.761Z,29.50
2022-10-24T21:35:18.690Z,32.50
2022-10-24T21:37:46.921Z,33.70
2022-10-24T21:40:18.189Z,30.95
2022-10-24T21:42:46.534Z,34.25
2022-10-24T21:45:14.675Z,35.30
2022-10-24T21:47:42.644Z,30.65
2022-10-24T21:50:11.995Z,36.72
2022-10-24T21:52:39.879Z,35.33
2022-10-24T21:55:08.585Z,34.28
2022-10-24T21:57:36.552Z,32.42
2022-10-24T22:00:05.146Z,28.15
2022-10-24T22:02:33.199Z,26.55
2022-10-24T22:05:01.263Z,26.73
2022-10-24T22:07:30.598Z,28.55
2022-10-24T22:09:58.524Z,26.15
2022-10-24T22:12:26.728Z,26.45
2022-10-24T22:14:54.646Z,22.13
2022-10-24T22:17:22.590Z,26.50
2022-10-24T22:19:50.525Z,23.65
2022-10-24T22:22:18.485Z,24.27
2022-10-24T22:24:47.958Z,23.87
2022-10-24T22:27:15.928Z,24.67
2022-10-24T22:29:43.874Z,25.50
2022-10-24T22:32:15.702Z,27.08
2022-10-24T22:34:44.162Z,29.50
2022-10-24T22:37:25.084Z,33.90
2022-10-24T22:39:54.916Z,39.05
2022-10-24T22:42:23.247Z,40.22
2022-10-24T22:44:51.715Z,36.22
2022-10-24T22:47:48.689Z,33.58
2022-10-24T22:50:40.992Z,34.92
2022-10-24T22:53:13.801Z,36.00
2022-10-24T22:55:50.563Z,36.17
2022-10-24T22:58:19.123Z,31.58
2022-10-24T23:00:50.842Z,29.63
2022-10-24T23:03:25.408Z,27.00
2022-10-24T23:05:59.677Z,25.75
2022-10-24T23:08:33.672Z,25.30
2022-10-24T23:11:03.675Z,24.63
2022-10-24T23:13:32.492Z,24.45
2022-10-24T23:16:06.965Z,23.88
2022-10-24T23:18:35.568Z,27.75
2022-10-24T23:21:11.928Z,27.63
2022-10-24T23:23:40.259Z,24.50
2022-10-24T23:26:18.288Z,24.60
2022-10-24T23:28:51.609Z,22.07
2022-10-24T23:31:20.124Z,29.42
2022-10-24T23:33:48.497Z,24.03
2022-10-24T23:36:23.916Z,32.15
2022-10-24T23:38:54.923Z,28.57
2022-10-24T23:41:24.905Z,31.88
2022-10-24T23:43:53.491Z,32.42
2022-10-24T23:46:26.963Z,33.25
2022-10-24T23:49:09.064Z,34.15
2022-10-24T23:51:42.060Z,33.60
2022-10-24T23:54:12.432Z,33.90
2022-10-24T23:56:42.299Z,35.17
2022-10-24T23:59:10.268Z,31.50
